Time;durP1;ratioP1;P1;durP2;ratioP2;P2;SDS_P1;SDS_P2;PMS_P1;PMS_P2;Temp;Humidity;BMP_temperature;BMP_pressure;BME280_temperature;BME280_humidity;BME280_pressure;Samples;Min_cycle;Max_cycle;Signal;HPM_P1;HPM_P2
2023/03/28 00:00:32;;;;;;;3.08;1.10;;;6.60;99.90;;;;;;5006845;28;20563;-60
2023/03/28 00:02:59;;;;;;;3.00;0.68;;;6.70;99.90;;;;;;5009542;28;20046;-60
2023/03/28 00:05:26;;;;;;;2.55;1.10;;;6.60;99.90;;;;;;5009553;28;20053;-59
2023/03/28 00:07:55;;;;;;;4.40;1.35;;;6.60;99.90;;;;;;5008890;28;20546;-58
2023/03/28 00:10:22;;;;;;;4.18;1.00;;;6.60;99.90;;;;;;5009704;28;20050;-60
2023/03/28 00:12:49;;;;;;;4.95;0.90;;;6.60;99.90;;;;;;5009594;28;20060;-59
2023/03/28 00:15:16;;;;;;;1.65;0.80;;;6.50;99.90;;;;;;5009772;28;20084;-60
2023/03/28 00:17:43;;;;;;;2.28;0.93;;;6.50;99.90;;;;;;5008606;28;20060;-59
2023/03/28 00:20:11;;;;;;;4.65;1.35;;;6.50;99.90;;;;;;4996913;28;20077;-60
2023/03/28 00:22:38;;;;;;;5.90;1.23;;;6.50;99.90;;;;;;5008619;28;20050;-60
2023/03/28 00:25:06;;;;;;;7.32;1.08;;;6.40;99.90;;;;;;5018828;28;20049;-59
2023/03/28 00:27:33;;;;;;;4.45;0.95;;;6.40;99.90;;;;;;5009570;28;20048;-58
2023/03/28 00:30:01;;;;;;;6.30;1.38;;;6.40;99.90;;;;;;4984122;28;20064;-58
2023/03/28 00:32:27;;;;;;;3.55;0.80;;;6.40;99.90;;;;;;5003995;28;20045;-61
2023/03/28 00:34:55;;;;;;;2.83;0.82;;;6.40;99.90;;;;;;5009469;28;20093;-61
2023/03/28 00:37:22;;;;;;;2.03;1.00;;;6.40;99.90;;;;;;5009510;28;20109;-59
2023/03/28 00:39:48;;;;;;;2.65;0.75;;;6.40;99.90;;;;;;5007322;28;20121;-59
2023/03/28 00:42:20;;;;;;;6.38;1.23;;;6.40;99.90;;;;;;5009210;28;20140;-58
2023/03/28 00:44:54;;;;;;;5.20;1.20;;;6.40;99.90;;;;;;5009384;28;20479;-57
2023/03/28 00:47:26;;;;;;;5.90;1.20;;;6.40;99.90;;;;;;5009663;28;20416;-58
2023/03/28 00:50:02;;;;;;;4.50;1.08;;;6.40;99.90;;;;;;5008319;28;20092;-60
2023/03/28 00:52:30;;;;;;;0.80;0.47;;;6.40;99.90;;;;;;4314355;28;10021451;-60
2023/03/28 00:54:57;;;;;;;4.75;1.20;;;6.30;99.90;;;;;;4992866;28;20050;-59
2023/03/28 00:57:24;;;;;;;4.13;0.82;;;6.40;99.90;;;;;;5005317;28;20053;-60
2023/03/28 00:59:51;;;;;;;2.47;0.75;;;6.40;99.90;;;;;;5002071;28;20081;-59
2023/03/28 01:02:18;;;;;;;3.95;0.70;;;6.40;99.90;;;;;;5008861;28;20075;-60
2023/03/28 01:05:03;;;;;;;4.72;0.95;;;6.40;99.90;;;;;;4999970;28;20089;-59
2023/03/28 01:07:34;;;;;;;2.58;0.65;;;6.40;99.90;;;;;;4992532;28;20046;-59
2023/03/28 01:10:02;;;;;;;5.60;0.82;;;6.40;99.90;;;;;;4979191;28;20234;-60
2023/03/28 01:12:31;;;;;;;1.90;0.82;;;6.40;99.90;;;;;;5007734;28;20489;-60
2023/03/28 01:14:59;;;;;;;2.90;0.98;;;6.40;99.90;;;;;;5008600;28;20081;-60
2023/03/28 01:17:26;;;;;;;3.45;0.65;;;6.40;99.90;;;;;;4993849;28;20050;-60
2023/03/28 01:20:12;;;;;;;1.90;0.80;;;6.40;99.90;;;;;;5008228;28;20049;-59
2023/03/28 01:22:45;;;;;;;5.03;0.70;;;6.40;99.90;;;;;;5004247;28;20057;-59
2023/03/28 01:25:41;;;;;;;3.17;0.73;;;6.40;99.90;;;;;;5007216;28;20568;-61
2023/03/28 01:28:30;;;;;;;4.03;0.98;;;6.40;99.90;;;;;;5008648;28;20415;-59
2023/03/28 01:31:26;;;;;;;9.20;1.02;;;6.40;99.90;;;;;;5001108;28;20136;-59
2023/03/28 01:34:20;;;;;;;1.42;0.50;;;6.40;99.90;;;;;;5001589;28;20042;-60
2023/03/28 01:37:15;;;;;;;2.20;0.70;;;6.40;99.90;;;;;;5008035;28;20129;-60
2023/03/28 01:39:54;;;;;;;;;;;6.40;99.90;;;;;;5008475;28;20064;-59
2023/03/28 01:42:27;;;;;;;2.65;0.68;;;6.40;99.90;;;;;;5008537;28;19921;-62
2023/03/28 01:45:18;;;;;;;4.57;0.73;;;6.40;99.90;;;;;;5007748;28;20053;-61
2023/03/28 01:47:54;;;;;;;5.38;0.80;;;6.40;99.90;;;;;;4993521;28;20054;-60
2023/03/28 01:50:46;;;;;;;4.75;0.80;;;6.40;99.90;;;;;;5004880;28;20065;-60
2023/03/28 01:53:42;;;;;;;4.55;0.90;;;6.40;99.90;;;;;;4999809;28;20049;-60
2023/03/28 01:56:36;;;;;;;1.30;0.75;;;6.80;99.90;;;;;;4999313;28;20046;-59
2023/03/28 01:59:16;;;;;;;1.52;0.70;;;6.40;99.90;;;;;;5008127;28;20060;-61
2023/03/28 02:01:53;;;;;;;3.55;0.98;;;6.40;99.90;;;;;;4997202;28;20130;-60
2023/03/28 02:04:20;;;;;;;4.43;0.95;;;6.40;99.90;;;;;;5004069;28;20042;-60
2023/03/28 02:06:48;;;;;;;2.00;0.70;;;6.60;99.90;;;;;;4993982;28;20054;-60
2023/03/28 02:09:15;;;;;;;2.13;0.80;;;6.30;99.90;;;;;;5003550;28;20125;-60
2023/03/28 02:11:42;;;;;;;2.15;0.70;;;6.40;99.90;;;;;;4999763;28;20048;-60
2023/03/28 02:14:11;;;;;;;1.80;0.95;;;6.40;99.90;;;;;;5002016;28;20057;-59
2023/03/28 02:16:42;;;;;;;2.42;0.73;;;6.40;99.90;;;;;;4997935;28;20121;-60
2023/03/28 02:19:08;;;;;;;5.82;0.88;;;6.40;99.90;;;;;;4994239;28;20051;-60
2023/03/28 02:21:52;;;;;;;1.55;0.95;;;6.40;99.90;;;;;;4996782;28;20121;-59
2023/03/28 02:24:19;;;;;;;5.03;0.85;;;6.30;99.90;;;;;;5003480;28;20398;-60
2023/03/28 02:26:46;;;;;;;5.30;1.33;;;6.30;99.90;;;;;;4997178;28;20149;-60
2023/03/28 02:29:14;;;;;;;4.68;1.30;;;6.30;99.90;;;;;;5012799;28;20085;-59
2023/03/28 02:31:41;;;;;;;2.20;0.77;;;6.30;99.90;;;;;;5004664;28;20583;-60
2023/03/28 02:34:08;;;;;;;3.05;1.35;;;6.30;99.90;;;;;;4995845;28;20066;-59
2023/03/28 02:36:53;;;;;;;4.75;1.50;;;6.40;99.90;;;;;;5004449;28;20050;-59
2023/03/28 02:39:35;;;;;;;5.28;0.90;;;6.20;99.90;;;;;;5006440;28;20504;-59
2023/03/28 02:42:06;;;;;;;6.50;1.00;;;6.20;99.90;;;;;;4986599;28;20049;-60
2023/03/28 02:45:10;;;;;;;4.13;0.90;;;6.20;99.90;;;;;;4989858;28;20050;-60
2023/03/28 02:47:47;;;;;;;8.80;1.23;;;6.10;99.90;;;;;;5007353;28;20289;-60
2023/03/28 02:50:27;;;;;;;11.32;2.25;;;6.10;99.90;;;;;;4990638;28;20053;-60
2023/03/28 02:53:25;;;;;;;5.22;1.88;;;6.10;99.90;;;;;;4974061;28;20069;-60
2023/03/28 02:55:57;;;;;;;6.80;1.10;;;6.10;99.90;;;;;;4971852;28;20057;-60
2023/03/28 02:58:36;;;;;;;4.50;1.00;;;6.10;99.90;;;;;;4973286;28;20042;-60
2023/03/28 03:01:05;;;;;;;3.08;1.10;;;6.20;99.90;;;;;;4974855;28;20981;-59
2023/03/28 03:03:35;;;;;;;7.18;1.23;;;6.10;99.90;;;;;;4975949;28;20125;-59
2023/03/28 03:06:03;;;;;;;9.82;1.23;;;6.10;99.90;;;;;;5011278;28;20575;-61
2023/03/28 03:08:30;;;;;;;3.42;1.17;;;6.10;99.90;;;;;;5007769;28;20566;-59
2023/03/28 03:10:57;;;;;;;2.88;1.33;;;6.20;99.90;;;;;;5005435;28;20149;-59
2023/03/28 03:13:24;;;;;;;10.95;1.30;;;6.20;99.90;;;;;;5010774;28;20544;-60
2023/03/28 03:15:53;;;;;;;9.13;2.10;;;6.20;99.90;;;;;;5011457;28;20042;-59
2023/03/28 03:18:20;;;;;;;3.25;0.90;;;6.20;99.90;;;;;;5011819;28;20126;-61
2023/03/28 03:20:49;;;;;;;3.92;1.50;;;6.20;99.90;;;;;;5009071;28;20053;-60
2023/03/28 03:23:15;;;;;;;4.95;1.23;;;6.30;99.90;;;;;;5011006;28;20104;-59
2023/03/28 03:25:43;;;;;;;7.70;2.20;;;6.30;99.90;;;;;;4994293;28;20056;-59
2023/03/28 03:28:11;;;;;;;4.72;0.90;;;6.30;99.90;;;;;;5010726;28;20457;-60
2023/03/28 03:30:38;;;;;;;14.10;1.40;;;6.30;99.90;;;;;;5012474;28;20825;-60
2023/03/28 03:33:04;;;;;;;6.18;1.10;;;6.30;99.90;;;;;;5012406;28;20042;-59
2023/03/28 03:35:32;;;;;;;17.65;1.65;;;6.30;99.90;;;;;;5008413;28;20042;-60
2023/03/28 03:37:59;;;;;;;5.60;1.25;;;6.30;99.90;;;;;;5006538;28;20057;-60
2023/03/28 03:40:26;;;;;;;5.22;1.67;;;6.30;99.90;;;;;;5012600;28;20046;-60
2023/03/28 03:42:53;;;;;;;4.85;1.15;;;6.30;99.90;;;;;;5011293;28;20050;-59
2023/03/28 03:45:20;;;;;;;3.70;1.10;;;6.30;99.90;;;;;;5010537;28;20192;-60
2023/03/28 03:47:47;;;;;;;8.50;1.23;;;6.40;99.90;;;;;;5010747;28;20046;-60
2023/03/28 03:50:14;;;;;;;8.45;1.15;;;6.40;99.90;;;;;;5010035;28;20386;-59
2023/03/28 03:52:41;;;;;;;11.07;1.65;;;6.40;99.90;;;;;;5010811;28;20138;-59
2023/03/28 03:55:08;;;;;;;5.30;1.10;;;6.40;99.90;;;;;;5000201;28;20053;-60
2023/03/28 03:57:35;;;;;;;12.40;1.15;;;6.40;99.90;;;;;;5005123;28;20112;-60
2023/03/28 04:00:10;;;;;;;3.40;1.20;;;6.40;99.90;;;;;;5010493;28;20054;-61
2023/03/28 04:02:38;;;;;;;4.47;1.10;;;6.40;99.90;;;;;;4996992;28;20137;-60
2023/03/28 04:05:07;;;;;;;4.65;0.90;;;6.40;99.90;;;;;;5006837;28;20089;-60
2023/03/28 04:07:34;;;;;;;4.40;1.15;;;6.40;99.90;;;;;;5009136;28;20065;-58
2023/03/28 04:10:01;;;;;;;6.95;1.23;;;6.40;99.90;;;;;;5000473;28;20074;-60
2023/03/28 04:12:28;;;;;;;6.13;1.55;;;6.50;99.90;;;;;;4999932;28;20042;-58
2023/03/28 04:14:55;;;;;;;7.28;1.45;;;6.50;99.90;;;;;;5008125;28;20073;-58
2023/03/28 04:17:27;;;;;;;10.75;1.95;;;6.50;99.90;;;;;;5010017;28;20504;-59
2023/03/28 04:19:55;;;;;;;10.60;1.83;;;6.50;99.90;;;;;;5009739;28;20044;-59
2023/03/28 04:22:22;;;;;;;3.33;1.00;;;6.60;99.90;;;;;;5010269;28;20056;-61
2023/03/28 04:24:52;;;;;;;6.15;1.48;;;6.60;99.90;;;;;;5009951;28;20050;-58
2023/03/28 04:27:19;;;;;;;3.65;0.98;;;6.60;99.90;;;;;;5009833;28;20117;-57
2023/03/28 04:29:45;;;;;;;9.38;1.33;;;6.70;99.90;;;;;;5010013;28;20461;-58
2023/03/28 04:32:12;;;;;;;7.53;1.05;;;6.60;99.90;;;;;;5009558;28;20489;-58
2023/03/28 04:34:39;;;;;;;8.18;1.60;;;6.60;99.90;;;;;;5009334;28;20057;-58
2023/03/28 04:37:08;;;;;;;5.03;1.42;;;6.60;99.90;;;;;;5002918;28;20050;-58
2023/03/28 04:39:34;;;;;;;3.67;1.13;;;6.60;99.90;;;;;;5009437;28;20128;-59
2023/03/28 04:42:04;;;;;;;12.63;2.17;;;6.70;99.90;;;;;;4984884;28;20496;-58
2023/03/28 04:44:31;;;;;;;14.73;1.35;;;6.70;99.90;;;;;;5009289;28;20054;-57
2023/03/28 04:46:57;;;;;;;1.98;1.00;;;6.70;99.90;;;;;;5000388;28;20308;-59
2023/03/28 04:49:24;;;;;;;6.25;1.23;;;6.80;99.90;;;;;;5009331;28;20144;-59
2023/03/28 04:51:51;;;;;;;7.93;1.83;;;6.80;99.90;;;;;;5009133;28;20046;-60
2023/03/28 04:54:18;;;;;;;2.13;0.88;;;6.80;99.90;;;;;;5009621;28;20156;-59
2023/03/28 04:56:48;;;;;;;4.40;0.90;;;6.80;99.90;;;;;;5009070;28;20486;-59
2023/03/28 04:59:15;;;;;;;12.75;1.27;;;6.80;99.90;;;;;;5009325;28;20066;-59
2023/03/28 05:01:47;;;;;;;8.05;1.30;;;6.90;99.90;;;;;;5009064;28;20129;-59
2023/03/28 05:04:18;;;;;;;18.10;1.42;;;6.80;99.90;;;;;;4991126;28;20137;-59
2023/03/28 05:06:45;;;;;;;6.28;1.85;;;6.90;99.90;;;;;;5004124;28;20046;-59
2023/03/28 05:09:13;;;;;;;4.28;1.17;;;6.90;99.90;;;;;;5008467;28;20571;-61
2023/03/28 05:11:39;;;;;;;7.25;1.40;;;7.00;99.90;;;;;;5008785;28;20107;-60
2023/03/28 05:14:06;;;;;;;4.45;1.25;;;6.90;99.90;;;;;;4996564;28;20099;-60
2023/03/28 05:16:33;;;;;;;11.15;2.15;;;7.00;99.90;;;;;;5008710;28;20218;-60
2023/03/28 05:19:00;;;;;;;8.93;1.58;;;7.00;99.90;;;;;;5008741;28;20120;-60
2023/03/28 05:21:27;;;;;;;9.35;1.70;;;7.00;99.90;;;;;;5008580;28;20049;-60
2023/03/28 05:23:54;;;;;;;6.85;1.50;;;7.00;99.90;;;;;;5001537;28;20049;-59
2023/03/28 05:26:21;;;;;;;12.57;1.85;;;7.00;99.90;;;;;;5006142;28;20056;-59
2023/03/28 05:28:47;;;;;;;9.68;1.90;;;7.00;99.90;;;;;;5008702;28;20060;-60
2023/03/28 05:31:16;;;;;;;10.63;2.88;;;7.00;99.90;;;;;;5008909;28;20038;-60
2023/03/28 05:33:42;;;;;;;8.68;3.53;;;7.00;99.90;;;;;;5007857;28;20564;-59
2023/03/28 05:36:09;;;;;;;9.68;2.08;;;7.00;99.90;;;;;;4992773;28;20046;-59
2023/03/28 05:38:36;;;;;;;7.63;1.90;;;7.10;99.90;;;;;;5007961;28;20485;-60
2023/03/28 05:41:03;;;;;;;6.35;1.35;;;7.00;99.90;;;;;;5008172;28;20045;-59
2023/03/28 05:43:30;;;;;;;7.10;1.65;;;7.00;99.90;;;;;;4998010;28;20449;-59
2023/03/28 05:45:57;;;;;;;5.90;1.50;;;7.00;99.90;;;;;;5001453;28;20080;-60
2023/03/28 05:48:24;;;;;;;8.25;3.47;;;6.90;99.90;;;;;;5001732;28;20069;-60
2023/03/28 05:50:50;;;;;;;10.00;1.70;;;6.90;99.90;;;;;;4996209;28;20501;-56
2023/03/28 05:53:17;;;;;;;11.43;2.03;;;6.80;99.90;;;;;;5003599;28;20129;-59
2023/03/28 05:55:44;;;;;;;10.63;1.25;;;6.80;99.90;;;;;;5009653;28;20049;-59
2023/03/28 05:58:11;;;;;;;5.18;1.60;;;6.80;99.90;;;;;;5007763;28;20073;-59
2023/03/28 06:00:38;;;;;;;7.63;1.75;;;6.80;99.90;;;;;;4998640;28;20509;-59
2023/03/28 06:03:06;;;;;;;9.32;1.40;;;6.70;99.90;;;;;;4994069;28;20404;-60
2023/03/28 06:05:33;;;;;;;7.65;1.60;;;6.70;99.90;;;;;;5008048;28;20046;-62
2023/03/28 06:08:00;;;;;;;8.23;1.75;;;6.60;99.90;;;;;;4659388;28;9999823;-57
2023/03/28 06:10:27;;;;;;;5.03;1.58;;;6.50;99.90;;;;;;5004439;28;20405;-58
2023/03/28 06:12:54;;;;;;;8.48;1.88;;;6.50;99.90;;;;;;5005053;28;20038;-60
2023/03/28 06:15:21;;;;;;;9.02;1.58;;;6.40;99.90;;;;;;5005064;28;20061;-57
2023/03/28 06:17:48;;;;;;;13.82;2.88;;;6.40;99.90;;;;;;5005049;28;20074;-58
2023/03/28 06:20:15;;;;;;;6.13;1.40;;;6.40;99.90;;;;;;5004674;28;20050;-59
2023/03/28 06:22:41;;;;;;;6.53;1.70;;;6.30;99.90;;;;;;5005466;28;20046;-56
2023/03/28 06:25:08;;;;;;;7.57;1.92;;;6.30;99.90;;;;;;5004831;28;20085;-55
2023/03/28 06:27:35;;;;;;;9.23;1.88;;;6.30;99.90;;;;;;5005603;28;20100;-56
2023/03/28 06:30:04;;;;;;;11.75;2.78;;;6.40;99.90;;;;;;5003641;28;20077;-54
2023/03/28 06:32:31;;;;;;;9.02;1.92;;;6.40;99.90;;;;;;5004877;28;20111;-57
2023/03/28 06:34:58;;;;;;;10.85;2.53;;;6.40;99.90;;;;;;5001998;28;20042;-57
2023/03/28 06:37:25;;;;;;;8.23;1.80;;;6.40;99.90;;;;;;5005335;28;20111;-56
2023/03/28 06:39:53;;;;;;;13.13;1.95;;;6.40;99.90;;;;;;5008190;28;20049;-58
2023/03/28 06:42:20;;;;;;;4.20;1.75;;;6.40;99.90;;;;;;5008716;28;20228;-57
2023/03/28 06:44:46;;;;;;;17.30;2.20;;;6.40;99.90;;;;;;5007579;28;20424;-58
2023/03/28 06:47:13;;;;;;;19.83;4.57;;;6.40;99.90;;;;;;5002201;28;20157;-58
2023/03/28 06:49:40;;;;;;;8.27;1.50;;;6.50;99.90;;;;;;5006632;28;20076;-61
2023/03/28 06:52:07;;;;;;;11.57;2.35;;;6.50;99.90;;;;;;5006198;28;20286;-59
2023/03/28 06:54:33;;;;;;;5.57;2.22;;;6.50;99.90;;;;;;5007434;28;20073;-59
2023/03/28 06:57:00;;;;;;;11.98;2.17;;;6.60;99.90;;;;;;5006238;28;20050;-59
2023/03/28 06:59:28;;;;;;;9.73;2.25;;;6.60;99.90;;;;;;5007419;28;20096;-59
2023/03/28 07:01:55;;;;;;;8.32;1.60;;;6.60;99.90;;;;;;5007120;28;20156;-58
2023/03/28 07:04:22;;;;;;;5.72;2.03;;;6.60;99.90;;;;;;5005621;28;20045;-58
2023/03/28 07:06:48;;;;;;;7.53;1.98;;;6.70;99.90;;;;;;5007626;28;20049;-58
2023/03/28 07:09:15;;;;;;;9.48;1.75;;;6.70;99.90;;;;;;5007609;28;20058;-58
2023/03/28 07:11:42;;;;;;;7.82;1.38;;;6.70;99.90;;;;;;4999171;28;20054;-59
2023/03/28 07:14:08;;;;;;;4.95;1.75;;;6.80;99.90;;;;;;5007589;28;20060;-57
2023/03/28 07:16:35;;;;;;;16.70;2.42;;;6.80;99.90;;;;;;4997132;28;20046;-56
2023/03/28 07:19:02;;;;;;;8.85;1.90;;;6.80;99.90;;;;;;5007810;28;20054;-60
2023/03/28 07:21:29;;;;;;;5.28;2.05;;;7.00;99.90;;;;;;5006216;28;20252;-59
2023/03/28 07:23:56;;;;;;;7.47;2.67;;;7.00;99.90;;;;;;4995403;28;20054;-57
2023/03/28 07:26:23;;;;;;;9.75;2.08;;;7.00;99.90;;;;;;5000943;28;20136;-61
2023/03/28 07:28:52;;;;;;;9.90;1.95;;;7.10;99.90;;;;;;5006693;28;20050;-59
2023/03/28 07:31:20;;;;;;;11.25;2.53;;;7.10;99.90;;;;;;5001431;28;20084;-56
2023/03/28 07:33:49;;;;;;;13.52;2.33;;;7.20;99.90;;;;;;5006527;28;20146;-57
2023/03/28 07:36:18;;;;;;;7.45;2.17;;;7.20;99.90;;;;;;5001823;28;20123;-56
2023/03/28 07:38:45;;;;;;;7.30;1.77;;;7.30;99.90;;;;;;5005421;28;20050;-58
2023/03/28 07:41:15;;;;;;;8.82;2.10;;;7.40;99.90;;;;;;5006403;28;20096;-56
2023/03/28 07:43:42;;;;;;;11.75;3.33;;;7.40;99.90;;;;;;5006525;28;20077;-58
2023/03/28 07:46:10;;;;;;;10.27;2.25;;;7.40;99.90;;;;;;5006913;28;20053;-58
2023/03/28 07:48:37;;;;;;;7.32;2.83;;;7.40;99.90;;;;;;5006467;28;20050;-57
2023/03/28 07:51:05;;;;;;;7.90;2.63;;;7.40;99.90;;;;;;4992843;28;20056;-56
2023/03/28 07:53:32;;;;;;;9.85;2.30;;;7.40;99.90;;;;;;4996421;28;20092;-58
2023/03/28 07:55:59;;;;;;;8.77;1.85;;;7.50;99.90;;;;;;4998552;28;20621;-55
2023/03/28 07:58:26;;;;;;;4.10;1.60;;;7.60;99.90;;;;;;5007637;28;20054;-57
2023/03/28 08:00:53;;;;;;;8.52;2.33;;;7.60;99.90;;;;;;5008564;28;20058;-56
2023/03/28 08:03:22;;;;;;;9.32;2.47;;;7.60;99.90;;;;;;4994862;28;20074;-60
2023/03/28 08:05:52;;;;;;;10.75;2.45;;;7.70;99.90;;;;;;5003595;28;20137;-58
2023/03/28 08:08:19;;;;;;;10.00;2.60;;;7.70;99.90;;;;;;4999605;28;20058;-57
2023/03/28 08:10:49;;;;;;;7.07;2.08;;;7.70;99.90;;;;;;4996999;28;20217;-59
2023/03/28 08:13:17;;;;;;;12.43;2.42;;;7.70;99.90;;;;;;5007963;28;20396;-59
2023/03/28 08:15:44;;;;;;;8.77;2.58;;;7.70;99.90;;;;;;5010295;28;20045;-58
2023/03/28 08:18:11;;;;;;;9.35;2.70;;;7.70;99.90;;;;;;5003540;28;20042;-58
2023/03/28 08:20:38;;;;;;;8.45;2.72;;;7.80;99.90;;;;;;5010315;28;20140;-59
2023/03/28 08:23:06;;;;;;;10.02;2.85;;;7.90;99.90;;;;;;5009487;28;20042;-59
2023/03/28 08:25:33;;;;;;;12.85;2.40;;;7.90;99.90;;;;;;5010510;28;20054;-59
2023/03/28 08:27:59;;;;;;;17.20;2.63;;;8.00;99.90;;;;;;5009455;28;20133;-59
2023/03/28 08:30:26;;;;;;;12.43;2.47;;;8.00;99.90;;;;;;5008872;28;20064;-58
2023/03/28 08:32:53;;;;;;;12.43;2.42;;;8.00;99.90;;;;;;5004243;28;20046;-59
2023/03/28 08:35:20;;;;;;;8.98;2.65;;;8.00;99.90;;;;;;5009089;28;20452;-59
2023/03/28 08:37:48;;;;;;;4.85;2.08;;;8.10;99.90;;;;;;5009005;28;20049;-58
2023/03/28 08:40:16;;;;;;;12.35;2.70;;;8.10;99.90;;;;;;5008960;28;20132;-59
2023/03/28 08:43:01;;;;;;;7.55;3.13;;;8.10;99.90;;;;;;5008799;28;20042;-58
2023/03/28 08:45:36;;;;;;;10.20;3.13;;;8.10;99.90;;;;;;5007779;28;20184;-58
2023/03/28 08:48:10;;;;;;;8.85;3.35;;;8.10;99.90;;;;;;5002169;28;20129;-58
2023/03/28 08:50:41;;;;;;;17.75;2.08;;;8.10;99.90;;;;;;4986653;28;20080;-59
2023/03/28 08:53:16;;;;;;;8.00;2.47;;;8.10;99.90;;;;;;4995599;28;20041;-58
2023/03/28 08:55:43;;;;;;;15.38;2.60;;;8.20;99.90;;;;;;4994699;28;20137;-59
2023/03/28 08:58:18;;;;;;;17.25;3.55;;;8.10;99.90;;;;;;5008450;28;20053;-57
2023/03/28 09:00:45;;;;;;;12.18;2.30;;;8.20;99.90;;;;;;4991406;28;20065;-58
2023/03/28 09:03:17;;;;;;;12.25;2.53;;;8.30;99.90;;;;;;5009446;28;20273;-59
2023/03/28 09:05:48;;;;;;;15.02;4.68;;;8.30;99.90;;;;;;5001032;28;20132;-57
2023/03/28 09:08:51;;;;;;;15.98;2.95;;;8.30;99.90;;;;;;4994083;28;20133;-59
2023/03/28 09:11:29;;;;;;;12.52;2.78;;;8.30;99.90;;;;;;5001222;28;20046;-58
2023/03/28 09:13:56;;;;;;;11.63;2.70;;;8.30;99.90;;;;;;4995823;28;20052;-58
2023/03/28 09:16:55;;;;;;;13.48;3.17;;;8.30;99.90;;;;;;5009152;28;20488;-58
2023/03/28 09:19:42;;;;;;;9.65;2.47;;;8.30;99.90;;;;;;5003564;28;20049;-59
2023/03/28 09:22:55;;;;;;;10.23;2.78;;;8.40;99.90;;;;;;4996193;28;20439;-59
2023/03/28 09:25:31;;;;;;;9.07;3.22;;;8.40;99.90;;;;;;4975358;28;20056;-59
2023/03/28 09:28:18;;;;;;;8.55;2.83;;;8.40;99.90;;;;;;4955740;28;20046;-58
2023/03/28 09:30:47;;;;;;;8.93;2.53;;;8.40;99.90;;;;;;4998387;28;20045;-59
2023/03/28 09:33:17;;;;;;;9.77;2.05;;;8.40;99.90;;;;;;4988093;28;20053;-59
2023/03/28 09:35:45;;;;;;;14.60;2.33;;;8.40;99.90;;;;;;5002941;28;20050;-57
2023/03/28 09:38:25;;;;;;;7.85;1.80;;;8.40;99.90;;;;;;4996649;28;20125;-59
2023/03/28 09:40:53;;;;;;;7.55;2.30;;;8.50;99.90;;;;;;4986102;28;20042;-58
2023/03/28 09:43:25;;;;;;;27.95;5.95;;;8.50;99.90;;;;;;4996435;28;20140;-59
2023/03/28 09:46:07;;;;;;;12.65;2.45;;;8.50;99.90;;;;;;5000899;28;20042;-59
2023/03/28 09:48:35;;;;;;;7.68;2.10;;;8.50;99.90;;;;;;4996358;28;20108;-58
2023/03/28 09:51:03;;;;;;;12.82;2.17;;;8.50;99.90;;;;;;5002269;28;20077;-57
2023/03/28 09:53:34;;;;;;;11.23;2.47;;;8.60;99.90;;;;;;4643527;28;10000014;-59
2023/03/28 09:56:16;;;;;;;11.23;2.47;;;8.60;99.90;;;;;;4999008;28;20050;-58
2023/03/28 09:58:48;;;;;;;7.53;2.03;;;8.60;99.90;;;;;;5005826;28;20504;-59
2023/03/28 10:01:42;;;;;;;9.65;2.38;;;8.60;99.90;;;;;;5007102;28;20096;-58
2023/03/28 10:04:14;;;;;;;10.07;2.05;;;8.60;99.90;;;;;;5008191;28;20050;-61
2023/03/28 10:06:41;;;;;;;13.10;2.80;;;8.50;99.90;;;;;;5002266;28;20444;-58
2023/03/28 10:09:19;;;;;;;12.63;2.97;;;8.50;99.90;;;;;;4996239;28;20528;-60
2023/03/28 10:11:59;;;;;;;16.25;2.95;;;8.40;99.90;;;;;;5007945;28;20056;-59
2023/03/28 10:14:29;;;;;;;9.15;2.10;;;8.30;99.90;;;;;;5008122;28;20129;-58
2023/03/28 10:16:57;;;;;;;7.20;1.90;;;8.20;99.90;;;;;;5008170;28;20137;-57
2023/03/28 10:19:24;;;;;;;14.10;2.80;;;8.10;99.90;;;;;;4996208;28;20145;-58
2023/03/28 10:21:51;;;;;;;6.88;1.73;;;8.10;99.90;;;;;;5003639;28;20112;-57
2023/03/28 10:24:20;;;;;;;9.40;2.45;;;8.10;99.90;;;;;;4999432;28;20485;-56
2023/03/28 10:26:47;;;;;;;6.28;1.60;;;8.00;99.90;;;;;;4990152;28;20053;-54
2023/03/28 10:29:14;;;;;;;8.85;2.20;;;8.00;99.90;;;;;;5008087;28;20045;-56
2023/03/28 10:31:47;;;;;;;8.88;1.90;;;7.80;99.90;;;;;;5005521;28;20081;-59
2023/03/28 10:34:30;;;;;;;9.38;1.77;;;7.80;99.90;;;;;;4993187;28;20052;-58
2023/03/28 10:36:57;;;;;;;8.73;2.37;;;7.80;99.90;;;;;;5005543;28;20060;-58
2023/03/28 10:39:31;;;;;;;7.70;1.88;;;7.70;99.90;;;;;;5000921;28;20438;-62
2023/03/28 10:41:59;;;;;;;11.43;1.85;;;7.80;99.90;;;;;;5005318;28;20073;-54
2023/03/28 10:44:26;;;;;;;8.50;1.60;;;7.70;99.90;;;;;;4998752;28;20384;-59
2023/03/28 10:46:53;;;;;;;8.98;1.70;;;7.60;99.90;;;;;;5007446;28;20175;-58
2023/03/28 10:49:20;;;;;;;6.25;1.63;;;7.50;99.90;;;;;;4997821;28;20129;-58
2023/03/28 10:51:47;;;;;;;9.25;1.60;;;7.50;99.90;;;;;;4993787;28;20119;-57
2023/03/28 10:54:36;;;;;;;16.52;3.08;;;7.50;99.90;;;;;;5007379;28;20137;-58
2023/03/28 10:57:17;;;;;;;14.20;1.50;;;7.50;99.90;;;;;;5007541;28;20461;-55
2023/03/28 10:59:53;;;;;;;7.72;2.17;;;7.60;99.90;;;;;;5000610;28;20489;-57
2023/03/28 11:02:45;;;;;;;12.38;2.35;;;7.60;99.90;;;;;;4992191;28;20057;-58
2023/03/28 11:05:41;;;;;;;4.40;2.08;;;7.60;99.90;;;;;;4993936;28;20046;-58
2023/03/28 11:08:14;;;;;;;9.57;1.83;;;7.70;99.90;;;;;;5003219;28;20166;-57
2023/03/28 11:10:46;;;;;;;8.65;1.35;;;7.70;99.90;;;;;;5007710;28;20050;-59
2023/03/28 11:13:20;;;;;;;9.13;1.70;;;7.70;99.90;;;;;;5003118;28;20088;-58
2023/03/28 11:16:14;;;;;;;6.57;1.50;;;7.70;99.90;;;;;;4993034;28;20129;-58
2023/03/28 11:18:56;;;;;;;7.75;1.90;;;7.70;99.90;;;;;;5007439;28;20053;-58
2023/03/28 11:21:45;;;;;;;10.07;2.00;;;7.70;99.90;;;;;;5004732;28;20133;-59
2023/03/28 11:24:53;;;;;;;6.90;1.77;;;7.70;99.90;;;;;;5008086;28;20187;-58
2023/03/28 11:27:27;;;;;;;5.65;2.47;;;7.70;99.90;;;;;;4969519;28;20261;-57
2023/03/28 11:30:02;;;;;;;4.78;1.65;;;7.70;99.90;;;;;;4952627;28;20538;-55
2023/03/28 11:32:56;;;;;;;11.27;1.67;;;7.70;99.90;;;;;;4970743;28;20053;-58
2023/03/28 11:35:25;;;;;;;4.38;1.80;;;7.70;99.90;;;;;;5001744;28;20046;-58
2023/03/28 11:37:59;;;;;;;8.20;2.08;;;7.70;99.90;;;;;;5011155;28;20046;-58
2023/03/28 11:41:01;;;;;;;10.60;1.85;;;7.70;99.90;;;;;;5003085;28;20389;-56
2023/03/28 11:43:40;;;;;;;6.20;1.20;;;7.70;99.90;;;;;;4990443;28;20057;-58
2023/03/28 11:46:10;;;;;;;4.00;1.80;;;7.60;99.90;;;;;;4981177;28;20557;-58
2023/03/28 11:48:42;;;;;;;6.60;1.77;;;7.60;99.90;;;;;;5006697;28;20046;-58
2023/03/28 11:51:18;;;;;;;7.30;1.75;;;7.50;99.90;;;;;;5001594;28;20056;-60
2023/03/28 11:54:04;;;;;;;9.25;2.13;;;7.50;99.90;;;;;;5006341;28;20132;-61
2023/03/28 11:56:54;;;;;;;8.00;1.70;;;7.50;99.90;;;;;;5002518;28;20407;-57
2023/03/28 11:59:38;;;;;;;9.35;2.03;;;7.40;99.90;;;;;;5001981;28;20132;-58
2023/03/28 12:02:11;;;;;;;7.15;1.88;;;7.30;99.90;;;;;;4989055;28;20077;-58
2023/03/28 12:04:48;;;;;;;12.43;1.80;;;7.30;99.90;;;;;;4995981;28;20052;-58
2023/03/28 12:07:18;;;;;;;8.07;2.20;;;7.30;99.90;;;;;;5002675;28;20042;-58
2023/03/28 12:09:56;;;;;;;6.47;1.58;;;7.30;99.90;;;;;;5007434;28;20596;-58
2023/03/28 12:12:26;;;;;;;6.28;1.63;;;7.30;99.90;;;;;;5003015;28;20049;-58
2023/03/28 12:14:57;;;;;;;4.07;1.40;;;7.30;99.90;;;;;;4993928;28;20120;-58
2023/03/28 12:17:45;;;;;;;9.40;2.40;;;7.30;99.90;;;;;;5001633;28;20072;-59
2023/03/28 12:20:22;;;;;;;5.57;1.35;;;7.30;99.90;;;;;;4997438;28;20501;-58
2023/03/28 12:22:54;;;;;;;7.13;1.90;;;7.30;99.90;;;;;;5002770;28;20100;-60
2023/03/28 12:25:34;;;;;;;10.18;3.45;;;7.40;99.90;;;;;;5007271;28;20050;-59
2023/03/28 12:28:11;;;;;;;8.88;1.38;;;7.50;99.90;;;;;;4992107;28;20120;-60
2023/03/28 12:30:47;;;;;;;6.75;1.88;;;7.60;99.90;;;;;;5007541;28;20483;-58
2023/03/28 12:33:26;;;;;;;10.70;1.60;;;7.60;99.90;;;;;;5009355;28;20050;-60
2023/03/28 12:35:54;;;;;;;6.32;1.42;;;7.70;99.90;;;;;;5008238;28;20050;-59
2023/03/28 12:38:34;;;;;;;12.93;1.75;;;7.70;99.90;;;;;;5002708;28;20050;-57
2023/03/28 12:41:02;;;;;;;6.13;1.48;;;7.70;99.90;;;;;;5006714;28;20052;-58
2023/03/28 12:43:48;;;;;;;12.05;2.28;;;7.80;99.90;;;;;;5002090;28;20041;-59
2023/03/28 12:46:18;;;;;;;12.60;1.98;;;7.80;99.90;;;;;;5009357;28;20042;-61
2023/03/28 12:48:59;;;;;;;7.32;1.80;;;7.80;99.90;;;;;;5002813;28;20065;-59
2023/03/28 12:51:35;;;;;;;5.35;1.63;;;7.80;99.90;;;;;;5009327;28;20041;-59
2023/03/28 12:54:14;;;;;;;7.45;1.98;;;7.80;99.90;;;;;;4993898;28;20364;-57
2023/03/28 12:57:01;;;;;;;3.25;1.35;;;7.80;99.90;;;;;;5009793;28;20057;-56
2023/03/28 12:59:49;;;;;;;5.72;2.10;;;7.80;99.90;;;;;;5010101;28;20089;-59
2023/03/28 13:02:37;;;;;;;9.18;2.22;;;7.80;99.90;;;;;;5000365;28;20052;-59
2023/03/28 13:05:16;;;;;;;5.10;1.58;;;7.80;99.90;;;;;;5008485;28;20133;-56
2023/03/28 13:08:17;;;;;;;7.72;2.33;;;7.80;99.90;;;;;;5007040;28;20096;-60
2023/03/28 13:10:54;;;;;;;5.63;1.48;;;7.80;99.90;;;;;;4999244;28;20053;-60
2023/03/28 13:13:29;;;;;;;3.60;1.45;;;7.80;99.90;;;;;;4650254;28;10000394;-59
2023/03/28 13:15:59;;;;;;;9.13;1.83;;;7.70;99.90;;;;;;5005818;28;20513;-60
2023/03/28 13:18:32;;;;;;;12.88;2.80;;;7.70;99.90;;;;;;5004800;28;20046;-59
2023/03/28 13:21:03;;;;;;;5.05;1.85;;;7.70;99.90;;;;;;5005426;28;20050;-60